Flight Track Log - Related Links

Times and Time Zones

All times are in EST time to prevent confusion due to time zone crossing. See the N361EA flight status page for this flight to view local times or setup timezone preferences in your user account.

Time Position Orientation Groundspeed Altitude Reporting Facility
EST Latitude Longitude Course Direction KTS MPH feet Rate Location/Type
Sat 02:53:09 PM 52.4760 -112.8710 245° Southwest 198 228 7,900  Level FlightAware
Sat 02:53:34 PM 52.4670 -112.9060 247° West 198 228 7,900  Level FlightAware
Sat 02:54:04 PM 52.4560 -112.9470 246° West 195 224 7,900  Level FlightAware
Sat 02:54:44 PM 52.4410 -113.0020 246° West 197 227 7,900  Level FlightAware
Sat 02:55:09 PM 52.4320 -113.0340 245° Southwest 199 229 7,900  Level FlightAware
Sat 02:55:44 PM 52.4130 -113.0790 235° Southwest 199 229 7,900  Level FlightAware
Sat 02:56:09 PM 52.3990 -113.1090 233° Southwest 201 231 7,900  Level FlightAware
Sat 02:56:34 PM 52.3840 -113.1360 228° Southwest 195 224 7,900  Level FlightAware
Sat 02:56:59 PM 52.3670 -113.1650 226° Southwest 196 226 7,900  Level FlightAware
Sat 02:57:25 PM 52.3510 -113.1930 227° Southwest 197 227 7,900  Level FlightAware
Sat 02:57:49 PM 52.3360 -113.2200 228° Southwest 198 228 7,900  Level FlightAware
Sat 02:58:19 PM 52.3170 -113.2540 228° Southwest 196 226 7,900  Level FlightAware
Sat 02:58:39 PM 52.3040 -113.2750 225° Southwest 193 222 7,900  Level FlightAware
Sat 02:59:19 PM 52.2800 -113.3180 228° Southwest 189 217 7,900 -320 Level FlightAware
Sat 02:59:54 PM 52.2590 -113.3550 227° Southwest 195 224 7,500 -700 Descending FlightAware
Sat 03:00:19 PM 52.2430 -113.3820 226° Southwest 199 229 7,200 -700 Descending FlightAware
Sat 03:00:54 PM 52.2190 -113.4230 226° Southwest 202 232 6,800 -646 Descending FlightAware
Sat 03:01:24 PM 52.2000 -113.4560 227° Southwest 202 232 6,500 -369 Descending FlightAware
Sat 03:01:59 PM 52.1770 -113.4970 228° Southwest 192 221 6,400 -100 Descending FlightAware
Sat 03:02:24 PM 52.1620 -113.5240 228° Southwest 193 222 6,400  Level FlightAware
Sat 03:02:54 PM 52.1440 -113.5550 227° Southwest 191 220 6,400  Level FlightAware
Sat 03:03:19 PM 52.1280 -113.5810 225° Southwest 191 220 6,400  Level FlightAware
Sat 03:03:44 PM 52.1140 -113.6070 229° Southwest 191 220 6,400  Level FlightAware
Sat 03:04:04 PM 52.1020 -113.6270 226° Southwest 191 220 6,400 -218 Level FlightAware
Sat 03:04:39 PM 52.0800 -113.6650 227° Southwest 191 220 6,200 -200 Descending FlightAware
Sat 03:05:04 PM 52.0650 -113.6910 227° Southwest 185 213 6,200  Level FlightAware
Sat 03:05:29 PM 52.0510 -113.7150 227° Southwest 170 196 6,200  Level FlightAware
Sat 03:05:54 PM 52.0380 -113.7380 227° Southwest 153 176 6,200 -109 Level FlightAware
Sat 03:06:24 PM 52.0260 -113.7660 235° Southwest 154 177 6,100 -545 Descending FlightAware
Sat 03:06:49 PM 52.0270 -113.7970 273° West 172 198 5,700 -1,100 Descending FlightAware
Sat 03:07:24 PM 52.0260 -113.8440 268° West 180 207 5,000 -1,029 Descending FlightAware
Sat 03:07:59 PM 52.0390 -113.8840 298° West 164 189 4,500 -423 Descending FlightAware
Sat 03:08:35 PM 52.0610 -113.8920 347° North 116 133 4,500  Level FlightAware
Sat 03:08:59 PM 52.0750 -113.8930 357° North 116 133 4,500  Level FlightAware
Sat 03:09:19 PM 52.0870 -113.8930 360° North 114 131 4,500 -500 Level FlightAware
Sat 03:09:59 PM 52.1100 -113.8920 North 113 130 4,000 -655 Descending FlightAware
Sat 03:10:14 PM 52.1180 -113.8930 356° North 113 130 3,900 -533 Descending FlightAware
Sat 03:10:44 PM 52.1330 -113.8930 360° North 111 128 3,600 -358 Descending FlightAware
Sat 03:11:21 PM 52.1490 -113.8930 360° North 116 133 3,500 -343 Descending FlightAware
Sat 03:11:54 PM 52.1690 -113.8930 360° North 99 114 3,200 -5 Descending FlightAware
Sat 03:18:00 PM 52.0875 -113.9935 217° Southwest  Level Estimated
Sat 03:19:00 PM 52.0463 -114.0446 217° Southwest  Level Estimated
Sat 03:20:00 PM 52.0051 -114.0956 217° Southwest  Level Estimated
Sat 03:21:00 PM 51.9638 -114.1464 217° Southwest  Level Estimated
Sat 03:22:00 PM 51.9225 -114.1972 217° Southwest  Level Estimated
Sat 03:23:00 PM 51.8812 -114.2479 217° Southwest  Level Estimated
Sat 03:24:00 PM 51.8399 -114.2985 217° Southwest  Level Estimated
Sat 03:25:00 PM 51.7985 -114.3490 217° Southwest  Level Estimated
Sat 03:26:00 PM 51.7572 -114.3994 217° Southwest  Level Estimated
Sat 03:27:00 PM 51.7158 -114.4497 217° Southwest  Level Estimated
Sat 03:28:00 PM 51.6744 -114.4999 217° Southwest  Level Estimated
Sat 03:29:00 PM 51.6329 -114.5500 217° Southwest  Level Estimated
Sat 03:30:00 PM 51.5915 -114.6001 217° Southwest  Level Estimated
Sat 03:31:00 PM 51.5500 -114.6500 217° Southwest  Level Estimated
Sat 03:32:00 PM 51.5085 -114.6999 217° Southwest  Level Estimated
Sat 03:33:00 PM 51.4670 -114.7496 217° Southwest  Level Estimated
Sat 03:34:00 PM 51.4254 -114.7993 217° Southwest  Level Estimated
Sat 03:35:00 PM 51.3839 -114.8489 217° Southwest  Level Estimated
Sat 03:36:00 PM 51.3423 -114.8984 217° Southwest  Level Estimated
Sat 03:37:00 PM 51.3007 -114.9478 217° Southwest  Level Estimated
Sat 03:38:00 PM 51.2591 -114.9971 217° Southwest  Level Estimated
Sat 03:39:00 PM 51.2174 -115.0463 217° Southwest  Level Estimated
Sat 03:40:00 PM 51.1758 -115.0955 216° Southwest  Level Estimated
Sat 03:41:00 PM 51.1341 -115.1445 216° Southwest  Level Estimated
Sat 03:42:00 PM 51.0924 -115.1935 216° Southwest  Level Estimated
Sat 03:43:00 PM 51.0507 -115.2423 216° Southwest  Level Estimated
Sat 03:44:00 PM 51.0089 -115.2911 216° Southwest  Level Estimated
Sat 03:45:00 PM 50.9671 -115.3398 216° Southwest  Level Estimated
Sat 03:46:00 PM 50.9254 -115.3884 216° Southwest  Level Estimated
Sat 03:47:00 PM 50.8835 -115.4370 216° Southwest  Level Estimated
Sat 03:48:00 PM 50.8417 -115.4854 216° Southwest  Level Estimated
Sat 03:49:00 PM 50.7999 -115.5337 216° Southwest  Level Estimated
Sat 03:50:00 PM 50.7580 -115.5820 216° Southwest  Level Estimated
Sat 03:51:00 PM 50.7161 -115.6302 216° Southwest  Level Estimated
Sat 03:52:00 PM 50.6742 -115.6783 216° Southwest  Level Estimated
Sat 03:53:00 PM 50.6323 -115.7263 216° Southwest  Level Estimated
Sat 03:54:00 PM 50.5903 -115.7742 216° Southwest  Level Estimated
Sat 03:55:00 PM 50.5483 -115.8220 216° Southwest  Level Estimated
Sat 03:56:00 PM 50.5064 -115.8698 216° Southwest  Level Estimated
Sat 03:57:00 PM 50.4644 -115.9174 216° Southwest  Level Estimated
Sat 03:58:00 PM 50.4223 -115.9650 216° Southwest  Level Estimated
Sat 03:59:00 PM 50.3803 -116.0125 216° Southwest  Level Estimated
Sat 04:00:00 PM 50.3382 -116.0599 216° Southwest  Level Estimated
Sat 04:01:00 PM 50.2962 -116.1072 216° Southwest  Level Estimated
Sat 04:02:00 PM 50.2541 -116.1545 216° Southwest  Level Estimated
Sat 04:03:00 PM 50.2119 -116.2016 216° Southwest  Level Estimated
Sat 04:04:00 PM 50.1698 -116.2487 216° Southwest  Level Estimated
Sat 04:05:00 PM 50.1276 -116.2957 216° Southwest  Level Estimated
Sat 04:06:00 PM 50.0855 -116.3426 216° Southwest  Level Estimated
Sat 04:07:00 PM 50.0433 -116.3894 215° Southwest  Level Estimated
Sat 04:08:00 PM 50.0010 -116.4362 215° Southwest  Level Estimated
Sat 04:09:00 PM 49.9588 -116.4828 215° Southwest  Level Estimated
Sat 04:10:00 PM 49.9166 -116.5294 215° Southwest  Level Estimated
Sat 04:11:00 PM 49.8743 -116.5759 215° Southwest  Level Estimated
Sat 04:12:00 PM 49.8320 -116.6223 215° Southwest  Level Estimated
Sat 04:13:00 PM 49.7897 -116.6687 215° Southwest  Level Estimated
Sat 04:14:00 PM 49.7474 -116.7149 215° Southwest  Level Estimated
Sat 04:15:00 PM 49.7050 -116.7611 215° Southwest  Level Estimated
Sat 04:16:00 PM 49.6627 -116.8072 215° Southwest  Level Estimated
Sat 04:17:00 PM 49.6203 -116.8532 215° Southwest  Level Estimated
Sat 04:18:00 PM 49.5779 -116.8991 215° Southwest  Level Estimated
Sat 04:19:00 PM 49.5355 -116.9450 215° Southwest  Level Estimated
Sat 04:20:00 PM 49.4930 -116.9907 215° Southwest  Level Estimated
Sat 04:21:00 PM 49.4506 -117.0364 215° Southwest  Level Estimated
Sat 04:22:00 PM 49.4081 -117.0820 215° Southwest  Level Estimated
Sat 04:23:00 PM 49.3656 -117.1276 215° Southwest  Level Estimated
Sat 04:24:00 PM 49.3231 -117.1730 215° Southwest  Level Estimated
Sat 04:25:00 PM 49.2806 -117.2184 215° Southwest  Level Estimated
Sat 04:26:00 PM 49.2380 -117.2637 215° Southwest  Level Estimated
Sat 04:27:00 PM 49.1955 -117.3089 215° Southwest  Level Estimated
Sat 04:28:00 PM 49.1529 -117.3541 215° Southwest  Level Estimated
Sat 04:29:00 PM 49.1103 -117.3992 215° Southwest  Level Estimated
Sat 04:30:00 PM 49.0677 -117.4442 215° Southwest  Level Estimated
Sat 04:31:00 PM 49.0251 -117.4891 215° Southwest  Level Estimated
Sat 04:32:00 PM 48.9824 -117.5339 215° Southwest  Level Estimated
Sat 04:33:00 PM 48.9397 -117.5787 215° Southwest  Level Estimated
Sat 04:34:00 PM 48.8971 -117.6233 215° Southwest  Level Estimated
Sat 04:35:00 PM 48.8544 -117.6680 215° Southwest  Level Estimated
Sat 04:36:00 PM 48.8116 -117.7125 214° Southwest  Level Estimated
Sat 04:37:00 PM 48.7689 -117.7569 214° Southwest  Level Estimated
Sat 04:38:00 PM 48.7262 -117.8013 214° Southwest  Level Estimated
Sat 04:39:00 PM 48.6834 -117.8456 214° Southwest  Level Estimated
Sat 04:40:00 PM 48.6406 -117.8898 214° Southwest  Level Estimated
Sat 04:41:00 PM 48.5978 -117.9340 214° Southwest  Level Estimated
Sat 04:42:00 PM 48.5550 -117.9781 214° Southwest  Level Estimated
Sat 04:43:00 PM 48.5121 -118.0221 214° Southwest  Level Estimated
Sat 04:44:00 PM 48.4693 -118.0660 214° Southwest  Level Estimated
Sat 04:45:00 PM 48.4264 -118.1099 214° Southwest  Level Estimated
Sat 04:46:00 PM 48.3835 -118.1537 214° Southwest  Level Estimated
Sat 04:47:00 PM 48.3406 -118.1974 214° Southwest  Level Estimated
Sat 04:48:00 PM 48.2977 -118.2410 214° Southwest  Level Estimated
Sat 04:49:00 PM 48.2548 -118.2846 214° Southwest  Level Estimated
Sat 04:50:00 PM 48.2118 -118.3281 214° Southwest  Level Estimated
Sat 04:51:00 PM 48.1688 -118.3715 214° Southwest  Level Estimated
Sat 04:52:00 PM 48.1259 -118.4148 214° Southwest  Level Estimated
Sat 04:53:00 PM 48.0829 -118.4581 214° Southwest  Level Estimated
Sat 04:54:00 PM 48.0398 -118.5013 214° Southwest  Level Estimated
Sat 04:55:00 PM 47.9968 -118.5444 214° Southwest  Level Estimated
Sat 04:56:00 PM 47.9538 -118.5875 214° Southwest  Level Estimated
Sat 04:57:00 PM 47.9107 -118.6304 214° Southwest  Level Estimated
Sat 04:58:00 PM 47.8676 -118.6734 214° Southwest  Level Estimated
Sat 04:59:00 PM 47.8245 -118.7162 214° Southwest  Level Estimated
Sat 05:00:00 PM 47.7814 -118.7590 214° Southwest  Level Estimated
Sat 05:01:00 PM 47.7383 -118.8017 214° Southwest  Level Estimated
Sat 05:02:00 PM 47.6951 -118.8443 214° Southwest  Level Estimated
Sat 05:03:00 PM 47.6520 -118.8869 214° Southwest  Level Estimated
Sat 05:04:00 PM 47.6088 -118.9294 214° Southwest  Level Estimated
Sat 05:05:00 PM 47.5656 -118.9718 214° Southwest  Level Estimated
Sat 05:06:00 PM 47.5224 -119.0141 214° Southwest  Level Estimated
Sat 05:07:00 PM 47.4792 -119.0564 213° Southwest  Level Estimated
Sat 05:08:00 PM 47.4359 -119.0986 213° Southwest  Level Estimated
Sat 05:09:00 PM 47.3927 -119.1407 213° Southwest  Level Estimated
Sat 05:10:00 PM 47.3494 -119.1828 213° Southwest  Level Estimated
Sat 05:11:00 PM 47.3061 -119.2248 213° Southwest  Level Estimated
Sat 05:12:00 PM 47.2628 -119.2667 213° Southwest  Level Estimated
Sat 05:13:00 PM 47.2195 -119.3086 213° Southwest  Level Estimated
Sat 05:14:00 PM 47.2086 -119.3191 213° Southwest  Level Estimated
Sat 05:15:00 PM 47.2086 -119.3191 13° North  Level Estimated
Sat 05:16:00 PM 47.2086 -119.3191 13° North  Level Estimated
Sat 05:17:00 PM 47.2086 -119.3191 13° North  Level Estimated
Sat 05:18:00 PM 47.2086 -119.3191 13° North  Level Estimated
Sat 05:19:00 PM 47.2086 -119.3191 13° North  Level Estimated
Sat 05:20:00 PM 47.2086 -119.3191 13° North  Level Estimated
Sat 05:20:02 PM 52.1760 -113.8930 270° West  Level FlightAware
Sat 05:22:32 PM 52.1870 -113.8930 360° North 114 131 2,800 1,125 Climbing FlightAware
Sat 05:22:42 PM 52.1930 -113.8930 360° North 128 147 3,000 1,371 Climbing FlightAware
Sat 05:23:07 PM 52.2060 -113.8920 North 146 168 3,600 2,100 Climbing FlightAware
Sat 05:23:42 PM 52.2230 -113.9200 315° West 164 189 5,100 2,400 Climbing FlightAware
Sat 05:24:17 PM 52.2070 -113.9500 229° Southwest 155 178 6,400 2,123 Climbing FlightAware
Sat 05:24:47 PM 52.1890 -113.9720 217° Southwest 146 168 7,400 1,920 Climbing FlightAware
Sat 05:25:07 PM 52.1780 -113.9850 216° Southwest 145 167 8,000 1,800 Climbing FlightAware
Sat 05:25:27 PM 52.1670 -113.9990 218° Southwest 146 168 8,600 1,867 Climbing FlightAware
Sat 05:25:52 PM 52.1520 -114.0170 216° Southwest 150 173 9,400 1,867 Climbing FlightAware
Sat 05:26:12 PM 52.1400 -114.0320 217° Southwest 159 183 10,000 1,855 Climbing FlightAware
Sat 05:26:47 PM 52.1200 -114.0560 216° Southwest 160 184 11,100 1,832 Climbing FlightAware
Sat 05:27:47 PM 52.0840 -114.0990 216° Southwest 159 183 12,900 1,800 Climbing FlightAware
Sat 05:28:37 PM 52.0550 -114.1350 217° Southwest 148 170 14,400 1,333 Climbing FlightAware
Sat 05:29:17 PM 52.0300 -114.1660 217° Southwest 190 219 14,900 484 Climbing FlightAware
Sat 05:29:39 PM 52.0130 -114.1870 217° Southwest 212 244 14,900  Level FlightAware
Sat 05:30:39 PM 51.9620 -114.2480 216° Southwest 238 274 14,900  Level FlightAware
Sat 05:31:02 PM 51.9430 -114.2710 217° Southwest 242 278 14,900 1,538 Level FlightAware
Sat 05:31:57 PM 51.8990 -114.3230 216° Southwest 181 208 16,900 1,925 Climbing FlightAware
Sat 05:32:48 PM 51.8670 -114.3610 216° Southwest 162 186 18,300 1,458 Climbing FlightAware
Sat 05:33:44 PM 51.8350 -114.4000 217° Southwest 157 181 19,500 1,200 Climbing FlightAware
Sat 05:34:23 PM 51.8120 -114.4280 217° Southwest 155 178 20,200 1,091 Climbing FlightAware
Sat 05:35:23 PM 51.7780 -114.4690 217° Southwest 152 175 21,300 1,029 Climbing FlightAware
Sat 05:36:08 PM 51.7540 -114.4970 216° Southwest 155 178 22,000 627 Climbing FlightAware
Sat 05:36:30 PM 51.7380 -114.5160 216° Southwest 173 199 22,000  Level FlightAware
Sat 05:37:31 PM 51.6950 -114.5680 217° Southwest 206 237 22,000  Level FlightAware
Sat 05:38:13 PM 51.6620 -114.6070 216° Southwest 219 252 22,000  Level FlightAware
Sat 05:38:57 PM 51.6260 -114.6500 217° Southwest 226 260 22,000  Level FlightAware
Sat 05:39:49 PM 51.5810 -114.7020 216° Southwest 226 260 22,000  Level FlightAware
Sat 05:40:23 PM 51.5540 -114.7350 217° Southwest 228 262 22,000  Level FlightAware
Sat 05:41:17 PM 51.5060 -114.7900 216° Southwest 224 258 22,000  Level FlightAware
Sat 05:42:07 PM 51.4640 -114.8410 217° Southwest 225 259 22,000  Level FlightAware
Sat 05:42:37 PM 51.4380 -114.8710 216° Southwest 226 260 22,000  Level FlightAware
Sat 05:43:27 PM 51.3950 -114.9210 216° Southwest 228 262 22,000  Level FlightAware
Sat 05:44:27 PM 51.3410 -114.9840 216° Southwest 227 261 22,000  Level FlightAware
Sat 05:45:22 PM 51.2930 -115.0390 216° Southwest 224 258 22,000  Level FlightAware
Sat 05:46:02 PM 51.2590 -115.0790 216° Southwest 226 260 22,000  Level FlightAware
Sat 05:46:47 PM 51.2190 -115.1250 216° Southwest 225 259 22,000  Level FlightAware
Sat 05:47:32 PM 51.1810 -115.1700 217° Southwest 221 254 22,000  Level FlightAware
Sat 05:48:27 PM 51.1350 -115.2230 216° Southwest 223 257 22,000  Level FlightAware
Sat 05:48:56 PM 51.1100 -115.2510 215° Southwest 220 253 22,000  Level FlightAware
Sat 05:49:52 PM 51.0660 -115.3020 216° Southwest 217 250 22,000  Level FlightAware
Sat 05:50:31 PM 51.0330 -115.3390 215° Southwest 219 252 22,000  Level FlightAware
Sat 05:51:27 PM 50.9880 -115.3910 216° Southwest 208 239 22,000  Level FlightAware
Sat 05:52:13 PM 50.9520 -115.4330 216° Southwest 215 247 22,000  Level FlightAware
Sat 05:53:08 PM 50.9060 -115.4850 215° Southwest 207 238 22,000  Level FlightAware
Sat 05:54:03 PM 50.8630 -115.5350 216° Southwest 213 245 22,000  Level FlightAware
Sat 05:54:49 PM 50.8260 -115.5760 215° Southwest 213 245 22,000  Level FlightAware
Sat 05:55:23 PM 50.7990 -115.6070 216° Southwest 204 235 22,000  Level FlightAware
Sat 05:55:49 PM 50.7790 -115.6290 215° Southwest 205 236 22,000  Level FlightAware
Sat 05:56:43 PM 50.7350 -115.6780 215° Southwest 205 236 22,000  Level FlightAware
Sat 05:57:29 PM 50.6990 -115.7190 216° Southwest 205 236 22,000  Level FlightAware
Sat 05:58:19 PM 50.6600 -115.7630 216° Southwest 203 234 22,000  Level FlightAware
Sat 05:58:59 PM 50.6280 -115.7990 216° Southwest 202 232 22,000  Level FlightAware
Sat 06:00:00 PM 50.5800 -115.8530 216° Southwest 204 235 22,000  Level FlightAware
Sat 06:00:41 PM 50.5470 -115.8890 215° Southwest 204 235 22,000  Level FlightAware
Sat 06:01:35 PM 50.5040 -115.9380 216° Southwest 205 236 22,000  Level FlightAware
Sat 06:02:20 PM 50.4680 -115.9780 215° Southwest 205 236 22,000  Level FlightAware
Sat 06:03:00 PM 50.4350 -116.0140 215° Southwest 207 238 22,000  Level FlightAware
Sat 06:03:40 PM 50.4040 -116.0490 216° Southwest 214 246 22,000  Level FlightAware
Sat 06:04:26 PM 50.3670 -116.0900 215° Southwest 215 247 22,000  Level FlightAware
Sat 06:05:20 PM 50.3220 -116.1390 215° Southwest 215 247 22,000  Level FlightAware
Sat 06:06:11 PM 50.2820 -116.1840 216° Southwest 215 247 22,000  Level FlightAware
Sat 06:07:02 PM 50.2400 -116.2300 215° Southwest 218 251 22,000  Level FlightAware
Sat 06:07:52 PM 50.1980 -116.2750 214° Southwest 219 252 22,000  Level FlightAware
Sat 06:08:42 PM 50.1570 -116.3200 215° Southwest 218 251 22,000  Level FlightAware
Sat 06:09:39 PM 50.1140 -116.3680 216° Southwest 218 251 22,000  Level FlightAware
Sat 06:10:27 PM 50.0800 -116.4040 214° Southwest 218 251 22,000  Level FlightAware
Sat 06:11:03 PM 50.0550 -116.4320 216° Southwest 218 251 22,000  Level FlightAware
Sat 06:11:46 PM 50.0250 -116.4650 215° Southwest 218 251 22,000  Level FlightAware
Sat 06:12:46 PM 49.9820 -116.5110 215° Southwest 218 251 22,000  Level FlightAware
Sat 06:13:10 PM 49.9660 -116.5290 216° Southwest 218 251 22,000  Level FlightAware
Sat 06:13:48 PM 49.8667 -116.6333 216° Southwest 220 253 22,000  Level Edmonton Center
Sat 06:14:48 PM 49.8167 -116.6667 203° Southwest 220 253 22,000  Level Edmonton Center
Sat 06:15:48 PM 49.7667 -116.7333 221° Southwest 230 265 22,000  Level Edmonton Center
Sat 06:16:48 PM 49.7167 -116.8000 221° Southwest 220 253 22,000  Level Edmonton Center
Sat 06:17:48 PM 49.6833 -116.8500 224° Southwest 220 253 22,000  Level Edmonton Center
Sat 06:18:48 PM 49.6167 -116.9000 206° Southwest 220 253 22,000  Level Edmonton Center
Sat 06:19:48 PM 49.5667 -116.9500 213° Southwest 220 253 22,000  Level Edmonton Center
Sat 06:20:48 PM 49.5167 -117.0167 221° Southwest 220 253 22,000  Level Edmonton Center
Sat 06:21:48 PM 49.4667 -117.0500 203° Southwest 220 253 22,000  Level Edmonton Center
Sat 06:22:48 PM 49.4167 -117.1167 221° Southwest 220 253 22,000  Level Edmonton Center
Sat 06:23:48 PM 49.3667 -117.1500 203° Southwest 220 253 22,000  Level Edmonton Center
Sat 06:24:48 PM 49.3167 -117.2167 221° Southwest 220 253 22,000  Level Edmonton Center
Sat 06:25:48 PM 49.2667 -117.2667 213° Southwest 220 253 22,000  Level Edmonton Center
Sat 06:26:48 PM 49.2167 -117.3167 213° Southwest 220 253 22,000  Level Edmonton Center
Sat 06:27:48 PM 49.1667 -117.3667 213° Southwest 220 253 22,000  Level Edmonton Center
Sat 06:28:48 PM 49.1167 -117.4333 221° Southwest 220 253 22,000  Level Edmonton Center
Sat 06:29:52 PM 49.1069 -117.4386 200° South 217 250 22,000  Level Seattle Center
Sat 06:30:52 PM 49.0472 -117.4992 214° Southwest 215 247 22,000  Level Seattle Center
Sat 06:31:53 PM 48.9983 -117.5494 214° Southwest 213 245 22,000  Level Seattle Center
Sat 06:32:54 PM 48.9500 -117.6008 215° Southwest 212 244 22,000  Level Seattle Center
Sat 06:33:54 PM 48.9008 -117.6514 214° Southwest 214 246 22,000  Level Seattle Center
Sat 06:34:55 PM 48.8517 -117.7008 213° Southwest 214 246 22,000  Level Seattle Center
Sat 06:35:56 PM 48.8014 -117.7522 214° Southwest 215 247 22,000  Level Seattle Center
Sat 06:36:56 PM 48.7514 -117.8031 214° Southwest 218 251 22,000  Level Seattle Center
Sat 06:37:57 PM 48.7028 -117.8539 215° Southwest 214 246 22,000  Level Seattle Center
Sat 06:38:58 PM 48.6519 -117.9044 213° Southwest 217 250 22,000  Level Seattle Center
Sat 06:39:58 PM 48.6022 -117.9569 215° Southwest 218 251 22,000  Level Seattle Center
Sat 06:40:59 PM 48.5525 -118.0053 213° Southwest 216 249 22,000  Level Seattle Center
Sat 06:42:00 PM 48.5014 -118.0578 214° Southwest 219 252 22,000  Level Seattle Center
Sat 06:43:00 PM 48.4503 -118.1086 213° Southwest 220 253 22,000  Level Seattle Center
Sat 06:44:01 PM 48.4000 -118.1597 214° Southwest 220 253 22,000  Level Seattle Center
Sat 06:45:02 PM 48.3508 -118.2094 214° Southwest 217 250 22,000  Level Seattle Center
Sat 06:46:02 PM 48.3003 -118.2589 213° Southwest 218 251 22,000  Level Seattle Center
Sat 06:47:03 PM 48.2411 -118.3183 214° Southwest 215 247 22,000  Level Seattle Center
Sat 06:48:04 PM 48.1903 -118.3683 213° Southwest 216 249 22,000  Level Seattle Center
Sat 06:49:04 PM 48.1394 -118.4181 213° Southwest 219 252 22,000  Level Seattle Center
Sat 06:50:05 PM 48.0875 -118.4697 214° Southwest 222 255 22,000 -246 Level Seattle Center
Sat 06:51:06 PM 48.0372 -118.5200 214° Southwest 220 253 21,500 -885 Descending Seattle Center
Sat 06:52:07 PM 47.9797 -118.5753 213° Southwest 242 278 20,200 -1,339 Descending Seattle Center
Sat 06:53:07 PM 47.9197 -118.6344 213° Southwest 255 293 18,800 -1,388 Descending Seattle Center
Sat 06:54:08 PM 47.8603 -118.6925 213° Southwest 257 296 17,400 -1,377 Descending Seattle Center
Sat 06:55:09 PM 47.8014 -118.7486 213° Southwest 253 291 16,000 -1,339 Descending Seattle Center
Sat 06:56:09 PM 47.7461 -118.8022 213° Southwest 239 275 14,700 -1,339 Descending Seattle Center
Sat 06:57:10 PM 47.6900 -118.8581 214° Southwest 244 281 13,300 -1,328 Descending Seattle Center
Sat 06:58:11 PM 47.6350 -118.9108 213° Southwest 238 274 12,000 -1,230 Descending Seattle Center
Sat 06:59:12 PM 47.5822 -118.9636 214° Southwest 230 265 10,800 -1,339 Descending Seattle Center
Sat 07:00:12 PM 47.5292 -119.0142 213° Southwest 229 264 9,300 -1,686 Descending Seattle Center
Sat 07:01:13 PM 47.4769 -119.0642 213° Southwest 226 260 7,400 -2,213 Descending Seattle Center
Sat 07:02:14 PM 47.4161 -119.1228 213° Southwest 219 252 4,800 -2,311 Descending Seattle Center
Sat 07:03:15 PM 47.3622 -119.1739 213° Southwest 228 262 2,700 -1,140 Descending Seattle Center
Sat 07:04:15 PM 47.3136 -119.2194 212° Southwest 210 242 2,500 -198 Descending Seattle Center
Sat 07:05:16 PM 47.2781 -119.2667 222° Southwest 175 201 2,300 -295 Descending Seattle Center
Sat 07:06:17 PM 47.2567 -119.3222 240° Southwest 149 171 1,900 -492 Descending Seattle Center
Sat 07:07:18 PM 47.2242 -119.3267 185° South 123 142 1,300 -347 Descending Seattle Center
Sat 07:08:18 PM 47.1997 -119.3142 161° South 119 137 1,200 -100 Descending Seattle Center
Sat 07:10:00 PM 47.2000 -119.3167 234° Southwest  Level FlightAware

Login

Don't have an account? Register now (free) for customized features, flight alerts, and more!